This is the latest recevied weather packets stored in our database for station/object K7DC. If no packets are shown the sender has not sent any weather packets the latest 10 day(s).
| Time | Temp. | Humidity | Pressure | Rain* | Wind** | Luminosity | Snow |
|---|---|---|---|---|---|---|---|
| 1777943101 | 21.11° C | 33% | 1013.1 hPa | 0 mm | - | 7 W/m² | - |
| 1777942797 | 21.11° C | 35% | 1012.9 hPa | 0 mm | - | 11 W/m² | - |
| 1777940373 | 21.67° C | 38% | 1013.7 hPa | 0 mm | - | 60 W/m² | - |
| 1777940070 | 21.67° C | 36% | 1013.7 hPa | 0 mm | - | 44 W/m² | - |
| 1777939767 | 22.22° C | 33% | 1013.5 hPa | 0 mm | - | 38 W/m² | - |
| 1777939162 | 22.78° C | 30% | 1013.2 hPa | 0 mm | - | 61 W/m² | - |
| 1777934312 | 27.22° C | 16% | 1012.7 hPa | 0 mm | - | 130 W/m² | - |
| 1777934007 | 27.22° C | 16% | 1012.8 hPa | 0 mm | - | 157 W/m² | - |
| 1777933704 | 27.22° C | 16% | 1012.9 hPa | 0 mm | - | 127 W/m² | - |
| 1777933100 | 27.22° C | 15% | 1012.7 hPa | 0 mm | - | 133 W/m² | - |
| 1777932796 | 27.22° C | 16% | 1012.8 hPa | 0 mm | - | 131 W/m² | - |
| 1777932493 | 27.22° C | 16% | 1012.9 hPa | 0 mm | - | 127 W/m² | - |
| 1777931279 | 27.78° C | 16% | 1013.3 hPa | 0 mm | - | 119 W/m² | - |
| 1777930369 | 28.33° C | 17% | 1013.4 hPa | 0 mm | - | 196 W/m² | - |
| 1777930066 | 28.33° C | 17% | 1013.3 hPa | 0 mm | - | 244 W/m² | - |
| 1777929762 | 28.33° C | 17% | 1013.1 hPa | 0 mm | - | 222 W/m² | - |
| 1777929460 | 28.33° C | 17% | 1013.2 hPa | 0 mm | - | 166 W/m² | - |
| 1777929156 | 28.33° C | 17% | 1013.2 hPa | 0 mm | - | 210 W/m² | - |
| 1777928854 | 28.33° C | 16% | 1012.8 hPa | 0 mm | - | 237 W/m² | - |
| 1777928551 | 28.33° C | 16% | 1013 hPa | 0 mm | - | 257 W/m² | - |
| 1777928248 | 28.89° C | 15% | 1013.2 hPa | 0 mm | - | 231 W/m² | - |
| 1777927041 | 27.78° C | 17% | 1013.4 hPa | 0 mm | - | 248 W/m² | - |
| 1777926738 | 27.78° C | 16% | 1013.3 hPa | 0 mm | - | 256 W/m² | - |
| 1777926135 | 28.89° C | 16% | 1013.5 hPa | 0 mm | - | 226 W/m² | - |
| 1777925227 | 30° C | 17% | 1013.3 hPa | 0 mm | - | 339 W/m² | - |
* Rain latest hour (hover to see other rain measurements)
** Current wind speed in m/s (hover to see current wind gust speed)